Time,TemperatureF,DewpointF,PressureIn,WindDirection,WindDirectionDegrees,WindSpeedMPH,WindSpeedGustMPH,Humidity,HourlyPrecipIn,Conditions,Clouds,dailyrainin,SoftwareType,DateUTC
2013-04-07 00:02:00,57.0,39.0,29.82,NW,312,0.0,1.0,50,0.00,,,0.00,,2013-04-07 05:02:00,
2013-04-07 00:12:00,57.0,39.0,29.82,NW,312,0.0,1.0,50,0.00,,,0.00,,2013-04-07 05:12:00,
2013-04-07 00:22:00,57.0,39.0,29.83,NW,312,1.0,2.0,50,0.00,,,0.00,,2013-04-07 05:22:00,
2013-04-07 00:33:00,56.0,38.0,29.82,NW,307,0.0,1.0,50,0.00,,,0.00,,2013-04-07 05:33:00,
2013-04-07 00:42:00,56.0,38.0,29.82,NW,307,0.0,1.0,50,0.00,,,0.00,,2013-04-07 05:42:00,
2013-04-07 00:52:00,56.0,38.0,29.82,NW,307,0.0,1.0,51,0.00,,,0.00,,2013-04-07 05:52:00,
2013-04-07 01:02:00,55.0,38.0,29.82,NW,307,1.0,2.0,53,0.00,,,0.00,,2013-04-07 06:02:00,
2013-04-07 01:12:00,55.0,38.0,29.82,NW,307,1.0,2.0,53,0.00,,,0.00,,2013-04-07 06:12:00,
2013-04-07 01:22:00,55.0,38.0,29.84,WSW,242,1.0,3.0,53,0.00,,,0.00,,2013-04-07 06:22:00,
2013-04-07 01:32:00,55.0,38.0,29.83,SW,228,3.0,5.0,53,0.00,,,0.00,,2013-04-07 06:32:00,
2013-04-07 01:42:00,55.0,38.0,29.83,SW,228,3.0,5.0,53,0.00,,,0.00,,2013-04-07 06:42:00,
2013-04-07 01:52:00,55.0,39.0,29.83,SW,216,2.0,4.0,54,0.00,,,0.00,,2013-04-07 06:52:00,
2013-04-07 02:02:00,54.0,38.0,29.83,SW,216,1.0,2.0,54,0.00,,,0.00,,2013-04-07 07:02:00,
2013-04-07 02:12:00,54.0,38.0,29.83,SW,216,1.0,2.0,54,0.00,,,0.00,,2013-04-07 07:12:00,
2013-04-07 02:22:00,55.0,39.0,29.82,SW,224,1.0,3.0,54,0.00,,,0.00,,2013-04-07 07:22:00,
2013-04-07 02:32:00,54.0,37.0,29.82,SW,224,0.0,0.0,53,0.00,,,0.00,,2013-04-07 07:32:00,
2013-04-07 02:42:00,54.0,37.0,29.82,SW,224,0.0,0.0,53,0.00,,,0.00,,2013-04-07 07:42:00,
2013-04-07 02:52:00,52.0,37.0,29.83,SW,224,0.0,0.0,56,0.00,,,0.00,,2013-04-07 07:52:00,
2013-04-07 03:02:00,53.0,38.0,29.84,SW,224,0.0,1.0,57,0.00,,,0.00,,2013-04-07 08:02:00,
2013-04-07 03:12:00,52.0,38.0,29.84,SW,224,0.0,1.0,58,0.00,,,0.00,,2013-04-07 08:12:00,
2013-04-07 03:22:00,52.0,38.0,29.84,SW,224,0.0,1.0,58,0.00,,,0.00,,2013-04-07 08:22:00,
2013-04-07 03:32:00,51.0,38.0,29.83,SW,224,1.0,2.0,60,0.00,,,0.00,,2013-04-07 08:32:00,
2013-04-07 03:42:00,51.0,38.0,29.83,SW,224,1.0,2.0,60,0.00,,,0.00,,2013-04-07 08:42:00,
2013-04-07 03:53:00,51.0,37.0,29.83,SW,224,0.0,0.0,59,0.00,,,0.00,,2013-04-07 08:53:00,
2013-04-07 04:02:00,50.0,37.0,29.84,SW,224,0.0,0.0,60,0.00,,,0.00,,2013-04-07 09:02:00,
2013-04-07 04:12:00,50.0,37.0,29.84,SW,224,0.0,0.0,60,0.00,,,0.00,,2013-04-07 09:12:00,
2013-04-07 04:22:00,49.0,37.0,29.82,SW,224,0.0,1.0,63,0.00,,,0.00,,2013-04-07 09:22:00,
2013-04-07 04:33:00,49.0,37.0,29.85,SW,224,0.0,0.0,63,0.00,,,0.00,,2013-04-07 09:33:00,
2013-04-07 04:43:00,49.0,37.0,29.85,SW,224,0.0,0.0,63,0.00,,,0.00,,2013-04-07 09:43:00,
2013-04-07 04:53:00,50.0,38.0,29.84,SW,224,0.0,0.0,63,0.00,,,0.00,,2013-04-07 09:53:00,
2013-04-07 05:03:00,49.0,37.0,29.84,SW,224,0.0,0.0,63,0.00,,,0.00,,2013-04-07 10:03:00,
2013-04-07 05:13:00,49.0,37.0,29.84,SW,224,0.0,0.0,63,0.00,,,0.00,,2013-04-07 10:13:00,
2013-04-07 05:22:00,48.0,38.0,29.83,SW,224,0.0,1.0,67,0.00,,,0.00,,2013-04-07 10:22:00,
2013-04-07 05:33:00,49.0,39.0,29.85,SW,224,1.0,2.0,67,0.00,,,0.00,,2013-04-07 10:33:00,
2013-04-07 05:42:00,49.0,39.0,29.85,SW,224,1.0,2.0,67,0.00,,,0.00,,2013-04-07 10:42:00,
2013-04-07 05:54:00,48.0,38.0,29.83,SW,224,2.0,2.0,69,0.00,,,0.00,,2013-04-07 10:54:00,
2013-04-07 06:02:00,47.0,38.0,29.84,SW,224,2.0,3.0,72,0.00,,,0.00,,2013-04-07 11:02:00,
2013-04-07 06:12:00,47.0,38.0,29.84,SW,224,2.0,3.0,72,0.00,,,0.00,,2013-04-07 11:12:00,
2013-04-07 06:22:00,46.0,39.0,29.85,SW,224,1.0,1.0,76,0.00,,,0.00,,2013-04-07 11:22:00,
2013-04-07 06:32:00,46.0,39.0,29.84,SW,224,2.0,3.0,77,0.00,,,0.00,,2013-04-07 11:32:00,
2013-04-07 06:42:00,46.0,39.0,29.84,SW,224,2.0,3.0,77,0.00,,,0.00,,2013-04-07 11:42:00,
2013-04-07 06:53:00,46.0,39.0,29.86,SW,224,2.0,3.0,76,0.00,,,0.00,,2013-04-07 11:53:00,
2013-04-07 07:02:00,46.0,39.0,29.85,SW,224,1.0,3.0,75,0.00,,,0.00,,2013-04-07 12:02:00,
2013-04-07 07:12:00,46.0,39.0,29.85,SW,224,1.0,3.0,75,0.00,,,0.00,,2013-04-07 12:12:00,
2013-04-07 07:22:00,48.0,40.0,29.86,SW,217,2.0,3.0,74,0.00,,,0.00,,2013-04-07 12:22:00,
2013-04-07 07:33:00,50.0,41.0,29.86,SW,217,2.0,2.0,71,0.00,,,0.00,,2013-04-07 12:33:00,
2013-04-07 07:42:00,50.0,41.0,29.86,SW,217,2.0,2.0,71,0.00,,,0.00,,2013-04-07 12:42:00,
2013-04-07 07:53:00,51.0,40.0,29.86,SW,217,2.0,2.0,66,0.00,,,0.00,,2013-04-07 12:53:00,
2013-04-07 08:03:00,50.0,39.0,29.87,SW,217,0.0,1.0,66,0.00,,,0.00,,2013-04-07 13:03:00,
2013-04-07 08:13:00,50.0,39.0,29.87,SW,217,0.0,1.0,66,0.00,,,0.00,,2013-04-07 13:13:00,
2013-04-07 08:22:00,51.0,40.0,29.89,SW,217,1.0,1.0,67,0.00,,,0.00,,2013-04-07 13:22:00,
2013-04-07 08:32:00,51.0,42.0,29.88,North,0,4.0,4.0,71,0.00,,,0.00,,2013-04-07 13:32:00,
2013-04-07 08:42:00,51.0,42.0,29.88,North,0,4.0,4.0,71,0.00,,,0.00,,2013-04-07 13:42:00,
2013-04-07 08:53:00,54.0,44.0,29.90,NNE,16,2.0,4.0,68,0.00,,,0.00,,2013-04-07 13:53:00,
2013-04-07 09:02:00,55.0,43.0,29.87,NE,50,4.0,5.0,63,0.00,,,0.00,,2013-04-07 14:02:00,
2013-04-07 09:12:00,55.0,43.0,29.87,NE,50,4.0,5.0,63,0.00,,,0.00,,2013-04-07 14:12:00,
2013-04-07 09:23:00,56.0,43.0,29.88,ENE,68,2.0,4.0,62,0.00,,,0.00,,2013-04-07 14:23:00,
2013-04-07 09:32:00,57.0,43.0,29.87,SE,135,2.0,4.0,60,0.00,,,0.00,,2013-04-07 14:32:00,
2013-04-07 09:43:00,57.0,43.0,29.87,SE,135,2.0,4.0,60,0.00,,,0.00,,2013-04-07 14:43:00,
2013-04-07 09:54:00,58.0,43.0,29.87,ENE,61,6.0,7.0,58,0.00,,,0.00,,2013-04-07 14:54:00,
2013-04-07 10:02:00,59.0,44.0,29.87,East,100,3.0,4.0,58,0.00,,,0.00,,2013-04-07 15:02:00,
2013-04-07 10:12:00,60.0,45.0,29.87,ESE,118,2.0,5.0,57,0.00,,,0.00,,2013-04-07 15:12:00,
2013-04-07 10:22:00,60.0,45.0,29.87,ESE,118,2.0,5.0,57,0.00,,,0.00,,2013-04-07 15:22:00,
2013-04-07 10:33:00,63.0,45.0,29.87,SE,130,5.0,6.0,52,0.00,,,0.00,,2013-04-07 15:33:00,
2013-04-07 10:43:00,63.0,45.0,29.87,SE,130,5.0,6.0,52,0.00,,,0.00,,2013-04-07 15:43:00,
2013-04-07 10:53:00,64.0,45.0,29.88,ESE,103,3.0,5.0,51,0.00,,,0.00,,2013-04-07 15:53:00,
2013-04-07 11:04:00,65.0,44.0,29.88,SE,136,3.0,8.0,47,0.00,,,0.00,,2013-04-07 16:04:00,
2013-04-07 11:13:00,65.0,44.0,29.88,SE,136,3.0,8.0,47,0.00,,,0.00,,2013-04-07 16:13:00,
2013-04-07 11:24:00,65.0,44.0,29.88,SSE,153,4.0,9.0,47,0.00,,,0.00,,2013-04-07 16:24:00,
2013-04-07 11:33:00,67.0,44.0,29.89,ESE,119,4.0,8.0,44,0.00,,,0.00,,2013-04-07 16:33:00,
2013-04-07 11:42:00,67.0,44.0,29.89,ESE,119,4.0,8.0,44,0.00,,,0.00,,2013-04-07 16:42:00,
2013-04-07 11:54:00,68.0,44.0,29.87,SSE,157,7.0,9.0,42,0.00,,,0.00,,2013-04-07 16:54:00,
2013-04-07 12:03:00,69.0,46.0,29.87,SE,131,6.0,7.0,43,0.00,,,0.00,,2013-04-07 17:03:00,
2013-04-07 12:13:00,69.0,46.0,29.87,SE,131,6.0,7.0,43,0.00,,,0.00,,2013-04-07 17:13:00,
2013-04-07 12:23:00,71.0,46.0,29.88,South,177,3.0,8.0,41,0.00,,,0.00,,2013-04-07 17:23:00,
2013-04-07 12:33:00,72.0,44.0,29.85,ESE,102,7.0,8.0,36,0.00,,,0.00,,2013-04-07 17:33:00,
2013-04-07 12:43:00,72.0,44.0,29.85,ESE,102,7.0,8.0,36,0.00,,,0.00,,2013-04-07 17:43:00,
2013-04-07 12:53:00,72.0,43.0,29.85,SSE,148,6.0,11.0,35,0.00,,,0.00,,2013-04-07 17:53:00,
2013-04-07 13:02:00,72.0,44.0,29.84,SE,145,9.0,11.0,36,0.00,,,0.00,,2013-04-07 18:02:00,
2013-04-07 13:13:00,72.0,44.0,29.84,SE,145,9.0,11.0,36,0.00,,,0.00,,2013-04-07 18:13:00,
2013-04-07 13:23:00,73.0,43.0,29.85,SSE,153,4.0,10.0,34,0.00,,,0.00,,2013-04-07 18:23:00,
2013-04-07 13:32:00,75.0,44.0,29.83,SSE,167,4.0,14.0,33,0.00,,,0.00,,2013-04-07 18:32:00,
2013-04-07 13:42:00,75.0,44.0,29.83,SSE,167,4.0,14.0,33,0.00,,,0.00,,2013-04-07 18:42:00,
2013-04-07 13:53:00,74.0,41.0,29.83,South,176,6.0,12.0,30,0.00,,,0.00,,2013-04-07 18:53:00,
2013-04-07 14:02:00,73.0,41.0,29.83,SSE,158,8.0,12.0,31,0.00,,,0.00,,2013-04-07 19:02:00,
2013-04-07 14:12:00,73.0,41.0,29.83,SSE,158,8.0,12.0,31,0.00,,,0.00,,2013-04-07 19:12:00,
2013-04-07 14:22:00,73.0,41.0,29.83,SSE,157,5.0,9.0,32,0.00,,,0.00,,2013-04-07 19:22:00,
2013-04-07 14:32:00,71.0,40.0,29.82,SE,140,7.0,11.0,33,0.00,,,0.00,,2013-04-07 19:32:00,
2013-04-07 14:42:00,71.0,40.0,29.82,SE,140,7.0,11.0,33,0.00,,,0.00,,2013-04-07 19:42:00,
2013-04-07 14:53:00,71.0,41.0,29.80,SSE,156,3.0,9.0,34,0.00,,,0.00,,2013-04-07 19:53:00,
2013-04-07 15:02:00,71.0,41.0,29.81,South,169,5.0,9.0,34,0.00,,,0.00,,2013-04-07 20:02:00,
2013-04-07 15:13:00,71.0,41.0,29.81,South,169,5.0,9.0,34,0.00,,,0.00,,2013-04-07 20:13:00,
2013-04-07 15:22:00,71.0,42.0,29.80,SE,144,5.0,8.0,35,0.00,,,0.00,,2013-04-07 20:22:00,
2013-04-07 15:32:00,71.0,41.0,29.79,SSE,159,5.0,12.0,34,0.00,,,0.00,,2013-04-07 20:32:00,
2013-04-07 15:43:00,71.0,41.0,29.79,SSE,159,5.0,12.0,34,0.00,,,0.00,,2013-04-07 20:43:00,
2013-04-07 15:53:00,71.0,43.0,29.79,SE,144,5.0,9.0,37,0.00,,,0.00,,2013-04-07 20:53:00,
2013-04-07 16:03:00,71.0,43.0,29.78,SE,129,7.0,12.0,37,0.00,,,0.00,,2013-04-07 21:03:00,
2013-04-07 16:13:00,71.0,43.0,29.78,SE,129,7.0,12.0,37,0.00,,,0.00,,2013-04-07 21:13:00,
2013-04-07 16:22:00,71.0,44.0,29.77,SSE,150,5.0,9.0,38,0.00,,,0.00,,2013-04-07 21:22:00,
2013-04-07 16:33:00,71.0,45.0,29.78,SE,131,8.0,9.0,39,0.00,,,0.00,,2013-04-07 21:33:00,
2013-04-07 16:43:00,71.0,45.0,29.78,SE,131,8.0,9.0,39,0.00,,,0.00,,2013-04-07 21:43:00,
2013-04-07 16:55:00,71.0,42.0,29.76,SSE,160,8.0,12.0,35,0.00,,,0.00,,2013-04-07 21:55:00,
2013-04-07 17:03:00,70.0,43.0,29.75,SE,146,8.0,12.0,37,0.00,,,0.00,,2013-04-07 22:03:00,
2013-04-07 17:13:00,70.0,43.0,29.75,SE,146,8.0,12.0,37,0.00,,,0.00,,2013-04-07 22:13:00,
2013-04-07 17:23:00,71.0,43.0,29.74,SSE,147,6.0,13.0,37,0.00,,,0.00,,2013-04-07 22:23:00,
2013-04-07 17:33:00,71.0,43.0,29.76,SE,136,4.0,12.0,37,0.00,,,0.00,,2013-04-07 22:33:00,
2013-04-07 17:43:00,71.0,43.0,29.76,SE,136,4.0,12.0,37,0.00,,,0.00,,2013-04-07 22:43:00,
2013-04-07 17:53:00,71.0,43.0,29.74,SE,146,7.0,14.0,37,0.00,,,0.00,,2013-04-07 22:53:00,
2013-04-07 18:03:00,71.0,43.0,29.72,SSE,165,7.0,17.0,37,0.00,,,0.00,,2013-04-07 23:03:00,
2013-04-07 18:12:00,71.0,43.0,29.72,SSE,165,7.0,17.0,37,0.00,,,0.00,,2013-04-07 23:12:00,
2013-04-07 18:22:00,71.0,45.0,29.72,South,172,4.0,14.0,40,0.00,,,0.00,,2013-04-07 23:22:00,
2013-04-07 18:32:00,70.0,46.0,29.72,SSE,154,7.0,13.0,42,0.00,,,0.00,,2013-04-07 23:32:00,
2013-04-07 18:42:00,70.0,46.0,29.72,SSE,154,7.0,13.0,42,0.00,,,0.00,,2013-04-07 23:42:00,
2013-04-07 18:52:00,69.0,46.0,29.69,SE,139,7.0,11.0,44,0.00,,,0.00,,2013-04-07 23:52:00,
2013-04-07 19:02:00,69.0,47.0,29.69,SE,134,9.0,16.0,45,0.00,,,0.00,,2013-04-08 00:02:00,
2013-04-07 19:12:00,69.0,47.0,29.69,SE,134,9.0,16.0,45,0.00,,,0.00,,2013-04-08 00:12:00,
2013-04-07 19:22:00,69.0,47.0,29.69,SE,136,13.0,17.0,46,0.00,,,0.00,,2013-04-08 00:22:00,
2013-04-07 19:32:00,68.0,48.0,29.68,SSE,148,8.0,17.0,48,0.00,,,0.00,,2013-04-08 00:32:00,
2013-04-07 19:42:00,68.0,48.0,29.68,SSE,148,8.0,17.0,48,0.00,,,0.00,,2013-04-08 00:42:00,
2013-04-07 19:53:00,67.0,48.0,29.69,SE,137,9.0,14.0,51,0.00,,,0.00,,2013-04-08 00:53:00,
2013-04-07 20:02:00,67.0,49.0,29.67,SE,138,7.0,13.0,53,0.00,,,0.00,,2013-04-08 01:02:00,
2013-04-07 20:12:00,67.0,49.0,29.67,SE,138,7.0,13.0,53,0.00,,,0.00,,2013-04-08 01:12:00,
2013-04-07 20:22:00,65.0,48.0,29.68,SE,141,8.0,14.0,55,0.00,,,0.00,,2013-04-08 01:22:00,
2013-04-07 20:33:00,64.0,50.0,29.68,SSE,150,9.0,15.0,60,0.00,,,0.00,,2013-04-08 01:33:00,
2013-04-07 20:43:00,64.0,50.0,29.68,SSE,150,9.0,15.0,60,0.00,,,0.00,,2013-04-08 01:43:00,
2013-04-07 20:55:00,62.0,50.0,29.72,South,178,7.0,9.0,64,0.01,,,0.01,,2013-04-08 01:55:00,
2013-04-07 21:02:00,61.0,50.0,29.70,SSE,155,6.0,10.0,67,0.02,,,0.02,,2013-04-08 02:02:00,
2013-04-07 21:12:00,61.0,50.0,29.70,SSE,155,6.0,10.0,67,0.02,,,0.02,,2013-04-08 02:12:00,
2013-04-07 21:22:00,60.0,50.0,29.71,SSE,159,6.0,12.0,70,0.02,,,0.02,,2013-04-08 02:22:00,
2013-04-07 21:33:00,59.0,50.0,29.74,SSE,162,2.0,6.0,73,0.05,,,0.05,,2013-04-08 02:33:00,
2013-04-07 21:45:00,59.0,50.0,29.74,SSE,162,2.0,6.0,73,0.05,,,0.05,,2013-04-08 02:45:00,
2013-04-07 21:54:00,58.0,52.0,29.76,South,191,3.0,7.0,79,0.21,,,0.22,,2013-04-08 02:54:00,
2013-04-07 22:06:00,57.0,52.0,29.73,South,179,2.0,9.0,83,0.38,,,0.40,,2013-04-08 03:06:00,
2013-04-07 22:14:00,57.0,52.0,29.73,South,179,2.0,9.0,83,0.38,,,0.40,,2013-04-08 03:14:00,
2013-04-07 22:23:00,57.0,52.0,29.76,South,187,1.0,5.0,83,0.39,,,0.41,,2013-04-08 03:23:00,
2013-04-07 22:33:00,57.0,52.0,29.75,SE,138,5.0,8.0,84,0.39,,,0.42,,2013-04-08 03:33:00,
2013-04-07 22:47:00,57.0,52.0,29.75,SE,138,5.0,8.0,84,0.39,,,0.42,,2013-04-08 03:47:00,
2013-04-07 22:56:00,56.0,51.0,29.73,SE,127,9.0,10.0,84,0.25,,,0.43,,2013-04-08 03:56:00,
2013-04-07 23:03:00,56.0,51.0,29.71,SE,128,14.0,14.0,84,0.05,,,0.45,,2013-04-08 04:03:00,
2013-04-07 23:12:00,56.0,51.0,29.71,SE,128,14.0,14.0,84,0.05,,,0.45,,2013-04-08 04:12:00,
2013-04-07 23:23:00,55.0,50.0,29.71,SE,127,9.0,15.0,84,0.07,,,0.47,,2013-04-08 04:23:00,
2013-04-07 23:33:00,55.0,50.0,29.68,SE,137,11.0,16.0,83,0.04,,,0.47,,2013-04-08 04:33:00,
2013-04-07 23:44:00,55.0,50.0,29.68,SE,137,11.0,16.0,83,0.04,,,0.47,,2013-04-08 04:44:00,
2013-04-07 23:52:00,55.0,49.0,29.67,SE,146,9.0,14.0,80,0.06,,,0.49,,2013-04-08 04:52:00,